BAW862 EGLL-LHBP
Flight info
| Callsign | BAW862 |
|---|---|
| Flight time | N/A |
| Altitude | 35000 |
| Route | BPK Q295 BRAIN M197 REDFA L620 TACHA DCT OTMEC DCT NOMKA DCT OMELO DCT EVIKU DCT BNO DCT ODNEM DCT BERVA DCT NIT/N0417F230 M748 ARFOX |
| Aircraft | A319/M-SDE3FGHIRWY/LB1 |
Departure
| Time | 2026-05-08 06:50 |
|---|---|
| Airport | London Heathrow Airport (EGLL) |
Arrival
| Time | N/A |
|---|---|
| Airport | Budapest Liszt Ferenc International Airport (LHBP) |
| Time | Latitude | Longitude | Altitude | Speed | Heading |
|---|---|---|---|---|---|
| 2026-05-08 06:25 | 51.46849 | -0.48227 | 98 ft | 0 kts | 89° |
| 2026-05-08 06:38 | 51.46849 | -0.48245 | 98 ft | 3 kts | 90° |
| 2026-05-08 06:38 | 51.46849 | -0.48277 | 98 ft | 3 kts | 93° |
| 2026-05-08 06:39 | 51.46851 | -0.48309 | 98 ft | 3 kts | 102° |
| 2026-05-08 06:39 | 51.46857 | -0.48339 | 98 ft | 3 kts | 125° |
| 2026-05-08 06:39 | 51.46867 | -0.48355 | 98 ft | 2 kts | 174° |
| 2026-05-08 06:39 | 51.46870 | -0.48356 | 98 ft | 0 kts | 180° |
| 2026-05-08 06:46 | 51.46831 | -0.48355 | 98 ft | 12 kts | 180° |
| 2026-05-08 06:46 | 51.46754 | -0.48371 | 98 ft | 5 kts | 232° |
| 2026-05-08 06:47 | 51.46743 | -0.48427 | 98 ft | 5 kts | 269° |
| 2026-05-08 06:47 | 51.46721 | -0.48466 | 98 ft | 10 kts | 186° |
| 2026-05-08 06:47 | 51.46603 | -0.48470 | 98 ft | 17 kts | 179° |
| 2026-05-08 06:47 | 51.46541 | -0.48469 | 98 ft | 9 kts | 179° |
| 2026-05-08 06:48 | 51.46474 | -0.48440 | 98 ft | 9 kts | 89° |
| 2026-05-08 06:48 | 51.46480 | -0.48337 | 98 ft | 9 kts | 89° |
| 2026-05-08 06:48 | 51.46481 | -0.48241 | 98 ft | 8 kts | 89° |
| 2026-05-08 06:48 | 51.46481 | -0.48206 | 98 ft | 0 kts | 90° |
| 2026-05-08 06:49 | 51.46482 | -0.47980 | 98 ft | 47 kts | 89° |
| 2026-05-08 06:49 | 51.46487 | -0.47196 | 98 ft | 92 kts | 89° |
| 2026-05-08 06:49 | 51.46494 | -0.45962 | 98 ft | 128 kts | 89° |
| 2026-05-08 06:49 | 51.46499 | -0.44381 | 164 ft | 147 kts | 90° |
| 2026-05-08 06:50 | 51.46500 | -0.42825 | 529 ft | 136 kts | 90° |
| 2026-05-08 06:50 | 51.46767 | -0.41350 | 606 ft | 144 kts | 52° |
| 2026-05-08 06:50 | 51.47440 | -0.40142 | 837 ft | 148 kts | 48° |
| 2026-05-08 06:50 | 51.48131 | -0.38908 | 1141 ft | 153 kts | 49° |
| 2026-05-08 06:51 | 51.48845 | -0.37619 | 1532 ft | 156 kts | 49° |
| 2026-05-08 06:51 | 51.49328 | -0.36741 | 1766 ft | 163 kts | 50° |